createdAt,value
2023-05-11T00:01:24.815Z,58.36
2023-05-11T00:03:52.647Z,58.47
2023-05-11T00:06:19.723Z,58.28
2023-05-11T00:08:46.897Z,58.32
2023-05-11T00:11:13.939Z,58.40
2023-05-11T00:13:40.885Z,58.44
2023-05-11T00:16:07.944Z,58.48
2023-05-11T00:18:34.983Z,58.97
2023-05-11T00:21:02.477Z,59.18
2023-05-11T00:23:29.572Z,59.26
2023-05-11T00:25:56.525Z,59.51
2023-05-11T00:28:23.562Z,59.46
2023-05-11T00:30:50.540Z,59.33
2023-05-11T00:33:18.379Z,59.02
2023-05-11T00:35:45.671Z,59.21
2023-05-11T00:38:12.590Z,58.79
2023-05-11T00:40:39.543Z,58.53
2023-05-11T00:43:06.794Z,58.49
2023-05-11T00:45:33.812Z,58.40
2023-05-11T00:48:00.833Z,58.62
2023-05-11T00:50:27.986Z,58.62
2023-05-11T00:52:55.979Z,58.80
2023-05-11T00:55:23.082Z,58.96
2023-05-11T00:57:50.069Z,58.69
2023-05-11T01:00:17.366Z,58.67
2023-05-11T01:02:45.269Z,58.66
2023-05-11T01:05:12.784Z,58.43
2023-05-11T01:08:00.351Z,58.46
2023-05-11T01:10:56.552Z,58.76
2023-05-11T01:13:28.312Z,58.71
2023-05-11T01:15:59.116Z,58.44
2023-05-11T01:18:39.586Z,58.64
2023-05-11T01:21:10.913Z,58.72
2023-05-11T01:23:45.068Z,58.62
2023-05-11T01:26:36.094Z,59.41
2023-05-11T01:29:30.085Z,59.32
2023-05-11T01:31:57.120Z,59.43
2023-05-11T01:34:30.703Z,59.56
2023-05-11T01:37:10.216Z,59.65
2023-05-11T01:39:40.402Z,59.40
2023-05-11T01:42:09.362Z,59.06
2023-05-11T01:44:38.007Z,59.07
2023-05-11T01:47:04.931Z,58.45
2023-05-11T01:49:33.846Z,58.32
2023-05-11T01:52:02.902Z,58.55
2023-05-11T01:54:30.618Z,58.52
2023-05-11T01:56:57.586Z,58.39
2023-05-11T01:59:25.783Z,58.15
2023-05-11T02:01:53.157Z,58.31
2023-05-11T02:04:20.300Z,58.05
2023-05-11T02:06:48.471Z,57.56
2023-05-11T02:09:18.630Z,57.22
2023-05-11T02:11:46.847Z,57.45
2023-05-11T02:14:15.962Z,57.48
2023-05-11T02:16:43.023Z,57.64
2023-05-11T02:19:10.005Z,57.41
2023-05-11T02:21:37.010Z,57.36
2023-05-11T02:24:05.372Z,57.51
2023-05-11T02:26:32.507Z,57.63
2023-05-11T02:28:59.532Z,57.58
2023-05-11T02:31:29.146Z,57.67
2023-05-11T02:34:00.512Z,57.66
2023-05-11T02:36:28.656Z,57.81
2023-05-11T02:39:02.941Z,58.01
2023-05-11T02:41:30.236Z,57.87
2023-05-11T02:44:01.543Z,58.01
2023-05-11T02:46:32.111Z,57.97
2023-05-11T02:49:01.355Z,58.21
2023-05-11T02:51:38.990Z,58.17
2023-05-11T02:54:10.863Z,58.22
2023-05-11T02:56:40.753Z,58.41
2023-05-11T02:59:09.074Z,58.62
2023-05-11T03:01:36.131Z,58.68
2023-05-11T03:04:06.644Z,58.96
2023-05-11T03:06:33.676Z,58.79
2023-05-11T03:09:01.837Z,58.92
2023-05-11T03:11:29.945Z,58.45
2023-05-11T03:13:56.927Z,58.44
2023-05-11T03:16:23.962Z,58.30
2023-05-11T03:18:51.118Z,58.58
2023-05-11T03:21:18.652Z,58.41
2023-05-11T03:23:46.079Z,58.47
2023-05-11T03:26:14.625Z,58.32
2023-05-11T03:28:41.606Z,58.50
2023-05-11T03:31:08.771Z,58.43
2023-05-11T03:33:35.907Z,58.67
2023-05-11T03:36:03.775Z,58.77
2023-05-11T03:38:31.217Z,58.72
2023-05-11T03:40:58.438Z,58.71
2023-05-11T03:43:27.328Z,58.59
2023-05-11T03:45:55.795Z,58.53
2023-05-11T03:48:22.981Z,58.46
2023-05-11T03:50:51.055Z,58.46
2023-05-11T03:53:18.014Z,58.51
2023-05-11T03:55:45.007Z,58.84
2023-05-11T03:58:11.959Z,59.09
2023-05-11T04:00:40.040Z,58.92
2023-05-11T04:03:09.419Z,58.96
2023-05-11T04:05:37.934Z,59.06
2023-05-11T04:08:07.915Z,58.76
2023-05-11T04:10:35.133Z,58.88
2023-05-11T04:13:02.079Z,59.18
2023-05-11T04:15:30.044Z,59.36
2023-05-11T04:17:56.990Z,59.35
2023-05-11T04:20:23.975Z,59.29
2023-05-11T04:22:51.081Z,59.56
2023-05-11T04:25:18.093Z,59.73
2023-05-11T04:27:45.558Z,59.59
2023-05-11T04:30:15.188Z,59.37
2023-05-11T04:32:42.293Z,59.32
2023-05-11T04:35:10.040Z,59.17
2023-05-11T04:37:38.820Z,59.02
2023-05-11T04:40:08.675Z,59.04
2023-05-11T04:42:40.912Z,58.79
2023-05-11T04:45:14.464Z,58.53
2023-05-11T04:47:42.251Z,58.21
2023-05-11T04:50:12.164Z,57.94
2023-05-11T04:52:39.531Z,57.72
2023-05-11T04:55:07.116Z,57.48
2023-05-11T04:57:34.917Z,57.40
2023-05-11T05:00:04.294Z,57.24
2023-05-11T05:02:33.093Z,57.10
2023-05-11T05:05:00.911Z,56.78
2023-05-11T05:07:27.895Z,56.19
2023-05-11T05:09:56.207Z,55.12
2023-05-11T05:12:24.048Z,54.24
2023-05-11T05:14:50.999Z,53.70
2023-05-11T05:17:18.298Z,52.80
2023-05-11T05:19:45.528Z,52.35
2023-05-11T05:22:12.453Z,52.05
2023-05-11T05:24:39.479Z,50.75
2023-05-11T05:27:06.648Z,50.06
2023-05-11T05:29:33.689Z,49.44
2023-05-11T05:32:00.728Z,48.87
2023-05-11T05:34:28.366Z,47.96
2023-05-11T05:36:55.611Z,47.07
2023-05-11T05:39:22.579Z,46.45
2023-05-11T05:41:49.593Z,46.56
2023-05-11T05:44:16.635Z,46.16
2023-05-11T05:46:44.187Z,46.05
2023-05-11T05:49:11.438Z,45.77
2023-05-11T05:51:38.497Z,45.52
2023-05-11T05:54:06.203Z,45.09
2023-05-11T05:56:35.211Z,44.66
2023-05-11T05:59:02.426Z,44.27
2023-05-11T06:01:29.511Z,43.51
2023-05-11T06:03:56.583Z,43.13
2023-05-11T06:06:24.953Z,42.23
2023-05-11T06:08:51.994Z,41.39
2023-05-11T06:11:19.322Z,40.61
2023-05-11T06:13:46.538Z,39.94
2023-05-11T06:16:13.660Z,39.36
2023-05-11T06:18:40.891Z,38.51
2023-05-11T06:21:07.977Z,37.68
2023-05-11T06:23:35.761Z,37.11
2023-05-11T06:26:02.699Z,36.42
2023-05-11T06:28:31.466Z,35.63
2023-05-11T06:31:01.543Z,34.68
2023-05-11T06:33:30.702Z,33.36
2023-05-11T06:35:58.303Z,32.52
2023-05-11T06:38:26.341Z,32.58
2023-05-11T06:40:53.646Z,31.84
2023-05-11T06:43:20.734Z,30.89
2023-05-11T06:45:48.766Z,30.82
2023-05-11T06:48:15.855Z,30.42
2023-05-11T06:50:42.833Z,29.49
2023-05-11T06:53:13.395Z,29.22
2023-05-11T06:55:40.314Z,28.86
2023-05-11T06:58:07.409Z,28.66
2023-05-11T07:00:34.475Z,28.28
2023-05-11T07:03:01.498Z,28.09
2023-05-11T07:05:28.521Z,27.88
2023-05-11T07:07:55.499Z,27.17
2023-05-11T07:10:23.566Z,26.85
2023-05-11T07:12:50.606Z,26.33
2023-05-11T07:15:17.545Z,25.81
2023-05-11T07:17:47.865Z,25.27
2023-05-11T07:20:15.159Z,25.52
2023-05-11T07:22:42.152Z,25.81
2023-05-11T07:25:10.027Z,25.65
2023-05-11T07:27:37.189Z,25.10
2023-05-11T07:30:04.884Z,25.00
2023-05-11T07:32:32.675Z,25.17
2023-05-11T07:34:59.628Z,25.21
2023-05-11T07:37:26.650Z,24.92
2023-05-11T07:39:54.526Z,24.66
2023-05-11T07:42:21.636Z,24.45
2023-05-11T07:44:48.591Z,24.14
2023-05-11T07:47:17.528Z,23.73
2023-05-11T07:49:44.806Z,23.12
2023-05-11T07:52:11.907Z,23.20
2023-05-11T07:54:40.364Z,22.72
2023-05-11T07:57:08.174Z,22.53
2023-05-11T07:59:35.529Z,22.10
2023-05-11T08:02:04.376Z,22.03
2023-05-11T08:04:32.840Z,21.92
2023-05-11T08:06:59.837Z,22.16
2023-05-11T08:09:27.000Z,22.34
2023-05-11T08:11:56.653Z,22.45
2023-05-11T08:14:25.100Z,21.33
2023-05-11T08:16:52.136Z,20.23
2023-05-11T08:19:19.094Z,20.04
2023-05-11T08:21:47.076Z,20.30
2023-05-11T08:24:14.116Z,20.64
2023-05-11T08:26:41.081Z,20.47
2023-05-11T08:29:08.046Z,21.07
2023-05-11T08:31:35.320Z,21.59
2023-05-11T08:34:13.714Z,21.76
2023-05-11T08:36:45.251Z,21.53
2023-05-11T08:39:12.354Z,20.99
2023-05-11T08:41:39.314Z,19.86
2023-05-11T08:44:06.234Z,19.47
2023-05-11T08:46:36.435Z,19.55
2023-05-11T08:49:03.414Z,19.53
2023-05-11T08:51:30.548Z,19.88
2023-05-11T08:53:59.455Z,20.10
2023-05-11T08:56:27.912Z,19.87
2023-05-11T08:58:56.177Z,18.79
2023-05-11T09:01:23.698Z,18.62
2023-05-11T09:03:50.992Z,18.77
2023-05-11T09:06:18.106Z,18.67
2023-05-11T09:08:45.893Z,18.22
2023-05-11T09:11:13.088Z,18.42
2023-05-11T09:13:40.903Z,18.78
2023-05-11T09:16:19.533Z,19.23
2023-05-11T09:18:55.991Z,18.92
2023-05-11T09:21:23.279Z,18.69
2023-05-11T09:23:50.845Z,18.93
2023-05-11T09:26:20.899Z,19.08
2023-05-11T09:29:02.437Z,19.71
2023-05-11T09:31:43.957Z,20.44
2023-05-11T09:34:21.732Z,20.84
2023-05-11T09:36:50.659Z,20.97
2023-05-11T09:39:35.208Z,21.26
2023-05-11T09:42:14.668Z,21.34
2023-05-11T09:44:41.997Z,21.27
2023-05-11T09:47:19.169Z,21.00
2023-05-11T09:49:47.149Z,21.03
2023-05-11T09:52:18.352Z,20.99
2023-05-11T09:54:52.919Z,20.93
2023-05-11T09:57:27.150Z,21.06
2023-05-11T09:59:54.513Z,21.18
2023-05-11T10:02:26.468Z,21.50
2023-05-11T10:04:55.161Z,21.58
2023-05-11T10:07:25.374Z,21.28
2023-05-11T10:09:53.913Z,21.03
2023-05-11T10:12:22.102Z,20.90
2023-05-11T10:14:51.823Z,21.12
2023-05-11T10:17:19.306Z,21.24
2023-05-11T10:19:49.418Z,21.28
2023-05-11T10:22:18.090Z,21.32
2023-05-11T10:24:45.078Z,21.32
2023-05-11T10:27:13.197Z,21.00
2023-05-11T10:29:40.455Z,20.58
2023-05-11T10:32:08.008Z,20.21
2023-05-11T10:34:35.454Z,20.48
2023-05-11T10:37:03.337Z,20.63
2023-05-11T10:39:30.410Z,20.73
2023-05-11T10:42:33.586Z,20.73
2023-05-11T10:45:07.080Z,20.85
2023-05-11T10:48:12.453Z,21.45
2023-05-11T10:51:19.904Z,21.41
2023-05-11T10:53:59.711Z,20.91
2023-05-11T10:56:26.661Z,20.96
2023-05-11T10:59:05.997Z,21.51
2023-05-11T11:01:40.207Z,21.61
2023-05-11T11:04:11.208Z,21.44
2023-05-11T11:06:42.974Z,20.96
2023-05-11T11:09:14.717Z,20.62
2023-05-11T11:11:46.503Z,20.35
2023-05-11T11:14:14.710Z,20.65
2023-05-11T11:16:42.160Z,20.61
2023-05-11T11:19:32.300Z,19.71
2023-05-11T11:22:02.362Z,19.79
2023-05-11T11:24:49.800Z,19.63
2023-05-11T11:27:16.917Z,19.13
2023-05-11T11:30:17.691Z,18.98
2023-05-11T11:32:46.387Z,18.96
2023-05-11T11:35:35.516Z,19.21
2023-05-11T11:38:03.255Z,18.38
2023-05-11T11:40:50.529Z,18.15
2023-05-11T11:43:21.205Z,17.89
2023-05-11T11:46:01.739Z,18.40
2023-05-11T11:48:37.926Z,18.59
2023-05-11T11:51:07.459Z,18.47
2023-05-11T11:53:37.978Z,17.95
2023-05-11T11:56:06.062Z,17.68
2023-05-11T11:58:53.272Z,17.95
2023-05-11T12:01:22.150Z,18.34
2023-05-11T12:04:24.752Z,18.36
2023-05-11T12:06:57.493Z,18.66
2023-05-11T12:09:26.726Z,18.79
2023-05-11T12:11:54.066Z,18.73
2023-05-11T12:14:21.858Z,18.85
2023-05-11T12:17:05.931Z,18.99
2023-05-11T12:19:32.996Z,19.16
2023-05-11T12:22:02.153Z,19.09
2023-05-11T12:24:29.340Z,19.25
2023-05-11T12:26:57.602Z,19.38
2023-05-11T12:29:24.893Z,19.35
2023-05-11T12:31:52.956Z,19.44
2023-05-11T12:34:24.314Z,19.49
2023-05-11T12:36:53.050Z,19.65
2023-05-11T12:39:24.901Z,20.26
2023-05-11T12:41:53.542Z,20.39
2023-05-11T12:44:21.726Z,20.27
2023-05-11T12:46:49.171Z,20.54
2023-05-11T12:51:52.750Z,20.66
2023-05-11T12:54:48.272Z,20.47
2023-05-11T12:57:33.788Z,20.14
2023-05-11T13:00:14.132Z,19.86
2023-05-11T13:02:54.842Z,19.71
2023-05-11T13:05:26.799Z,19.15
2023-05-11T13:08:00.997Z,18.57
2023-05-11T13:10:28.033Z,17.83
2023-05-11T13:12:55.386Z,17.28
2023-05-11T13:15:24.580Z,16.61
2023-05-11T13:17:59.269Z,15.94
2023-05-11T13:20:28.105Z,15.78
2023-05-11T13:23:05.721Z,15.36
2023-05-11T13:25:32.987Z,15.62
2023-05-11T13:28:01.946Z,15.65
2023-05-11T13:30:28.975Z,15.89
2023-05-11T13:32:56.122Z,15.93
2023-05-11T13:35:23.242Z,16.26
2023-05-11T13:37:50.204Z,16.51
2023-05-11T13:40:17.213Z,16.80
2023-05-11T13:42:44.125Z,17.02
2023-05-11T13:45:12.259Z,17.07
2023-05-11T13:47:39.322Z,17.17
2023-05-11T13:50:07.370Z,17.33
2023-05-11T13:52:34.365Z,17.13
2023-05-11T13:55:01.414Z,17.36
2023-05-11T13:57:28.344Z,17.48
2023-05-11T13:59:55.466Z,17.50
2023-05-11T14:02:22.668Z,17.62
2023-05-11T14:04:49.739Z,17.90
2023-05-11T14:07:16.956Z,17.77
2023-05-11T14:09:44.028Z,17.52
2023-05-11T14:12:11.146Z,17.47
2023-05-11T14:14:38.143Z,17.17
2023-05-11T14:17:06.064Z,17.15
2023-05-11T14:19:33.191Z,17.05
2023-05-11T14:22:01.259Z,17.12
2023-05-11T14:24:28.416Z,17.06
2023-05-11T14:26:55.381Z,17.27
2023-05-11T14:29:22.442Z,17.55
2023-05-11T14:31:50.078Z,17.68
2023-05-11T14:34:17.077Z,17.68
2023-05-11T14:36:44.098Z,17.70
2023-05-11T14:39:11.024Z,17.75
2023-05-11T14:41:38.046Z,17.76
2023-05-11T14:44:05.177Z,18.00
2023-05-11T14:46:32.174Z,18.34
2023-05-11T14:48:59.116Z,18.03
2023-05-11T14:51:26.118Z,18.08
2023-05-11T14:53:53.056Z,18.01
2023-05-11T14:56:20.342Z,18.04
2023-05-11T14:58:47.286Z,17.52
2023-05-11T15:01:14.285Z,16.67
2023-05-11T15:03:41.615Z,16.17
2023-05-11T15:06:08.776Z,16.01
2023-05-11T15:08:36.541Z,16.19
2023-05-11T15:11:03.690Z,16.10
2023-05-11T15:13:30.999Z,15.96
2023-05-11T15:15:58.034Z,15.41
2023-05-11T15:18:25.237Z,15.11
2023-05-11T15:20:52.221Z,15.06
2023-05-11T15:23:19.369Z,14.91
2023-05-11T15:25:47.403Z,14.66
2023-05-11T15:28:14.920Z,14.75
2023-05-11T15:30:42.366Z,14.67
2023-05-11T15:33:10.127Z,15.02
2023-05-11T15:35:37.929Z,15.56
2023-05-11T15:38:05.198Z,16.39
2023-05-11T15:40:32.647Z,16.69
2023-05-11T15:43:00.347Z,16.83
2023-05-11T15:45:27.819Z,17.23
2023-05-11T15:47:54.954Z,17.75
2023-05-11T15:50:22.581Z,18.17
2023-05-11T15:52:50.582Z,18.62
2023-05-11T15:55:18.214Z,19.02
2023-05-11T15:57:46.365Z,19.41
2023-05-11T16:00:14.146Z,19.79
2023-05-11T16:02:42.861Z,20.00
2023-05-11T16:05:09.884Z,20.41
2023-05-11T16:07:36.852Z,20.62
2023-05-11T16:10:03.989Z,20.86
2023-05-11T16:12:31.105Z,20.91
2023-05-11T16:14:58.065Z,21.39
2023-05-11T16:17:25.640Z,21.55
2023-05-11T16:19:53.027Z,22.14
2023-05-11T16:22:20.321Z,22.41
2023-05-11T16:24:47.340Z,22.42
2023-05-11T16:27:14.263Z,22.79
2023-05-11T16:29:41.291Z,23.02
2023-05-11T16:32:08.316Z,23.17
2023-05-11T16:34:35.354Z,23.35
2023-05-11T16:37:02.604Z,23.32
2023-05-11T16:39:29.577Z,23.25
2023-05-11T16:41:56.563Z,23.44
2023-05-11T16:44:24.008Z,23.66
2023-05-11T16:46:52.582Z,23.96
2023-05-11T16:49:20.230Z,24.05
2023-05-11T16:51:48.097Z,24.31
2023-05-11T16:54:15.083Z,24.38
2023-05-11T16:56:42.096Z,24.39
2023-05-11T16:59:10.773Z,24.52
2023-05-11T17:01:38.191Z,24.63
2023-05-11T17:04:05.378Z,24.98
2023-05-11T17:06:33.036Z,25.44
2023-05-11T17:09:00.362Z,25.92
2023-05-11T17:11:27.842Z,26.39
2023-05-11T17:13:54.959Z,27.18
2023-05-11T17:16:21.975Z,27.73
2023-05-11T17:18:49.063Z,27.81
2023-05-11T17:21:17.402Z,28.45
2023-05-11T17:23:45.644Z,29.65
2023-05-11T17:26:12.661Z,30.45
2023-05-11T17:28:39.693Z,30.90
2023-05-11T17:31:14.677Z,31.20
2023-05-11T17:33:42.085Z,30.78
2023-05-11T17:36:09.759Z,31.32
2023-05-11T17:58:32.623Z,35.39
2023-05-11T18:01:09.413Z,36.19
2023-05-11T18:03:42.247Z,36.46
2023-05-11T18:06:11.926Z,36.46
2023-05-11T18:08:39.311Z,37.02
2023-05-11T18:11:12.849Z,37.71
2023-05-11T18:13:40.486Z,38.23
2023-05-11T18:16:11.987Z,38.58
2023-05-11T18:18:42.038Z,39.30
2023-05-11T18:21:15.403Z,39.91
2023-05-11T18:23:45.357Z,40.28
2023-05-11T18:26:16.448Z,40.84
2023-05-11T18:28:46.268Z,41.24
2023-05-11T18:31:18.977Z,41.77
2023-05-11T18:33:46.917Z,42.25
2023-05-11T18:36:17.699Z,42.37
2023-05-11T18:38:49.112Z,42.36
2023-05-11T18:41:22.855Z,42.87
2023-05-11T18:43:54.835Z,43.24
2023-05-11T18:46:22.935Z,43.31
2023-05-11T18:48:55.719Z,43.56
2023-05-11T18:51:26.226Z,44.28
2023-05-11T18:53:53.743Z,45.01
2023-05-11T18:56:24.332Z,45.55
2023-05-11T18:58:54.332Z,45.99
2023-05-11T19:01:46.634Z,46.49
2023-05-11T19:04:17.757Z,47.02
2023-05-11T19:06:46.226Z,47.15
2023-05-11T19:09:29.652Z,47.73
2023-05-11T19:12:08.509Z,48.32
2023-05-11T19:22:56.825Z,49.50
2023-05-11T19:25:24.444Z,49.92
2023-05-11T19:33:27.500Z,50.60
2023-05-11T19:36:20.538Z,51.02
2023-05-11T19:41:55.718Z,51.54
2023-05-11T19:51:28.238Z,52.12
2023-05-11T19:54:30.089Z,51.72
2023-05-11T19:57:18.471Z,51.23
2023-05-11T20:00:41.702Z,51.55
2023-05-11T20:03:52.573Z,51.84
2023-05-11T20:08:33.296Z,52.14
2023-05-11T20:11:32.259Z,52.97
2023-05-11T20:14:48.606Z,53.67
2023-05-11T20:18:05.772Z,54.31
2023-05-11T20:21:03.117Z,54.63
2023-05-11T20:24:34.325Z,54.91
2023-05-11T20:28:12.791Z,55.44
2023-05-11T20:31:40.927Z,55.81
2023-05-11T20:34:49.928Z,56.24
2023-05-11T20:38:27.136Z,56.70
2023-05-11T20:41:51.374Z,57.05
2023-05-11T20:45:05.386Z,57.34
2023-05-11T20:48:53.410Z,58.02
2023-05-11T20:52:41.828Z,58.27
2023-05-11T20:55:22.288Z,58.52
2023-05-11T21:00:03.535Z,58.96
2023-05-11T21:02:33.508Z,59.27
2023-05-11T21:05:37.530Z,59.52
2023-05-11T21:08:28.383Z,59.76
2023-05-11T21:11:59.730Z,59.96
2023-05-11T21:15:17.750Z,60.56
2023-05-11T21:18:35.665Z,60.57
2023-05-11T21:21:29.173Z,60.87
2023-05-11T21:24:48.633Z,61.03
2023-05-11T21:27:49.783Z,61.07
2023-05-11T21:31:25.130Z,61.45
2023-05-11T21:34:53.221Z,61.25
2023-05-11T21:38:26.861Z,61.32
2023-05-11T21:41:53.758Z,61.56
2023-05-11T21:45:13.352Z,62.00
2023-05-11T21:49:01.588Z,62.37
2023-05-11T21:52:48.653Z,62.75
2023-05-11T21:56:33.287Z,63.10
2023-05-11T22:00:01.008Z,63.39
2023-05-11T22:03:36.816Z,63.61
2023-05-11T22:07:17.968Z,63.57
2023-05-11T22:11:05.094Z,63.70
2023-05-11T22:14:53.389Z,63.83
2023-05-11T22:18:18.864Z,63.94
2023-05-11T22:22:07.016Z,64.13
2023-05-11T22:25:45.375Z,64.15
2023-05-11T22:29:32.268Z,64.03
2023-05-11T22:33:20.311Z,63.79
2023-05-11T22:36:58.513Z,63.41
2023-05-11T22:40:20.553Z,63.41
2023-05-11T22:43:58.838Z,63.30
2023-05-11T22:47:06.513Z,63.22
2023-05-11T22:50:54.868Z,63.01
2023-05-11T22:54:25.679Z,63.10
2023-05-11T22:58:13.772Z,63.39
2023-05-11T23:02:01.690Z,63.84
2023-05-11T23:05:32.628Z,63.92
2023-05-11T23:08:36.572Z,64.42
2023-05-11T23:12:04.503Z,64.54
2023-05-11T23:15:34.749Z,64.99
2023-05-11T23:18:55.827Z,64.83
2023-05-11T23:22:22.946Z,64.87
2023-05-11T23:25:58.271Z,64.89
2023-05-11T23:29:28.509Z,64.93
2023-05-11T23:33:09.411Z,64.92
2023-05-11T23:36:48.591Z,64.69
2023-05-11T23:40:36.611Z,64.85
2023-05-11T23:44:17.390Z,64.98
2023-05-11T23:47:55.317Z,64.55
2023-05-11T23:51:43.553Z,64.32
2023-05-11T23:55:24.578Z,64.03
2023-05-11T23:59:12.519Z,63.81
